createdAt,value
2023-03-13T00:00:23.656Z,9.745637
2023-03-13T00:01:23.661Z,9.745547
2023-03-13T00:02:23.677Z,9.745328
2023-03-13T00:03:23.656Z,9.745375
2023-03-13T00:04:23.633Z,9.745543
2023-03-13T00:05:23.633Z,9.745411
2023-03-13T00:06:23.603Z,9.745524
2023-03-13T00:07:23.591Z,9.745428
2023-03-13T00:08:23.613Z,9.745709
2023-03-13T00:09:23.581Z,9.745482
2023-03-13T00:10:23.565Z,9.745855
2023-03-13T00:11:23.559Z,9.745610
2023-03-13T00:12:23.548Z,9.744904
2023-03-13T00:13:23.567Z,9.744459
2023-03-13T00:14:23.541Z,9.744877
2023-03-13T00:15:23.530Z,9.744869
2023-03-13T00:16:23.532Z,9.744765
2023-03-13T00:17:23.514Z,9.744833
2023-03-13T00:18:23.539Z,9.744440
2023-03-13T00:19:23.501Z,9.744366
2023-03-13T00:20:23.498Z,9.744366
2023-03-13T00:21:23.490Z,9.744366
2023-03-13T00:22:23.476Z,9.744366
2023-03-13T00:23:23.493Z,9.744366
2023-03-13T00:24:23.458Z,9.744366
2023-03-13T00:25:23.457Z,9.744366
2023-03-13T00:26:23.467Z,9.745371
2023-03-13T00:27:23.438Z,9.745318
2023-03-13T00:28:23.456Z,9.745318
2023-03-13T00:29:23.429Z,9.745318
2023-03-13T00:30:23.423Z,9.745318
2023-03-13T00:31:23.513Z,9.745318
2023-03-13T00:32:23.447Z,9.745318
2023-03-13T00:33:23.420Z,9.745318
2023-03-13T00:34:23.382Z,9.745318
2023-03-13T00:35:23.433Z,9.745140
2023-03-13T00:36:23.374Z,9.745818
2023-03-13T00:37:23.361Z,9.746069
2023-03-13T00:38:23.377Z,9.746164
2023-03-13T00:39:23.342Z,9.745819
2023-03-13T00:40:23.334Z,9.745680
2023-03-13T00:41:23.326Z,9.745369
2023-03-13T00:42:23.321Z,9.745386
2023-03-13T00:43:23.338Z,9.745634
2023-03-13T00:44:23.310Z,9.745345
2023-03-13T00:45:23.299Z,9.745220
2023-03-13T00:46:23.354Z,9.745374
2023-03-13T00:47:23.282Z,9.745095
2023-03-13T00:48:23.305Z,9.745294
2023-03-13T00:49:23.283Z,9.745704
2023-03-13T00:50:23.263Z,9.745429
2023-03-13T00:51:23.252Z,9.745212
2023-03-13T00:52:23.245Z,9.745270
2023-03-13T00:53:23.258Z,9.745564
2023-03-13T00:54:23.234Z,9.745696
2023-03-13T00:55:23.240Z,9.745276
2023-03-13T00:56:23.239Z,9.745214
2023-03-13T00:57:23.213Z,9.744898
2023-03-13T00:58:23.222Z,9.745501
2023-03-13T00:59:23.194Z,9.745609
2023-03-13T01:00:23.185Z,9.745555
2023-03-13T01:01:23.181Z,9.745717
2023-03-13T01:02:23.329Z,9.745377
2023-03-13T01:03:23.287Z,9.745010
2023-03-13T01:04:23.157Z,9.745242
2023-03-13T01:05:23.150Z,9.745914
2023-03-13T01:06:23.162Z,9.745026
2023-03-13T01:07:23.137Z,9.745895
2023-03-13T01:08:23.132Z,9.745913
2023-03-13T01:09:23.145Z,9.746530
2023-03-13T01:10:23.115Z,9.746078
2023-03-13T01:11:23.111Z,9.746245
2023-03-13T01:12:23.104Z,9.745653
2023-03-13T01:13:23.093Z,9.745507
2023-03-13T01:14:23.109Z,9.745639
2023-03-13T01:15:23.083Z,9.745610
2023-03-13T01:16:23.145Z,9.745459
2023-03-13T01:17:23.067Z,9.745510
2023-03-13T01:18:23.049Z,9.745594
2023-03-13T01:19:23.075Z,9.745665
2023-03-13T01:20:23.040Z,9.745739
2023-03-13T01:21:23.055Z,9.745589
2023-03-13T01:22:23.024Z,9.745605
2023-03-13T01:23:23.017Z,9.745614
2023-03-13T01:24:23.045Z,9.745732
2023-03-13T01:25:23.001Z,9.745525
2023-03-13T01:26:22.997Z,9.745535
2023-03-13T01:27:22.986Z,9.745501
2023-03-13T01:28:23.982Z,9.745509
2023-03-13T01:29:22.994Z,9.745431
2023-03-13T01:30:22.974Z,9.745540
2023-03-13T01:31:23.107Z,9.745280
2023-03-13T01:32:22.980Z,9.744839
2023-03-13T01:33:22.940Z,9.745092
2023-03-13T01:34:22.968Z,9.745303
2023-03-13T01:35:22.975Z,9.745273
2023-03-13T01:36:22.925Z,9.745266
2023-03-13T01:37:22.912Z,9.746087
2023-03-13T01:38:22.905Z,9.745509
2023-03-13T01:39:22.930Z,9.745551
2023-03-13T01:40:22.897Z,9.745452
2023-03-13T01:41:22.885Z,9.745401
2023-03-13T01:42:22.877Z,9.745288
2023-03-13T01:43:27.200Z,9.745150
2023-03-13T01:44:23.885Z,9.745358
2023-03-13T01:45:22.855Z,9.745435
2023-03-13T01:46:22.877Z,9.744980
2023-03-13T01:47:22.837Z,9.745038
2023-03-13T01:48:22.827Z,9.745311
2023-03-13T01:49:22.850Z,9.745664
2023-03-13T01:50:22.833Z,9.745622
2023-03-13T01:51:22.814Z,9.745545
2023-03-13T01:52:22.807Z,9.745511
2023-03-13T01:53:22.786Z,9.745653
2023-03-13T01:54:22.817Z,9.745676
2023-03-13T01:55:22.773Z,9.745727
2023-03-13T01:56:22.765Z,9.745721
2023-03-13T01:57:22.756Z,9.745530
2023-03-13T01:58:22.748Z,9.745571
2023-03-13T01:59:22.772Z,9.745549
2023-03-13T02:00:22.737Z,9.745424
2023-03-13T02:01:22.759Z,9.745558
2023-03-13T02:02:22.750Z,9.745582
2023-03-13T02:03:22.704Z,9.745474
2023-03-13T02:04:22.732Z,9.745449
2023-03-13T02:05:22.698Z,9.745490
2023-03-13T02:06:22.685Z,9.745407
2023-03-13T02:07:22.684Z,9.745563
2023-03-13T02:08:22.668Z,9.745733
2023-03-13T02:09:22.685Z,9.745021
2023-03-13T02:10:22.657Z,9.745857
2023-03-13T02:11:22.659Z,9.745847
2023-03-13T02:12:22.644Z,9.745681
2023-03-13T02:13:22.630Z,9.745393
2023-03-13T02:14:22.645Z,9.745603
2023-03-13T02:15:22.619Z,9.745290
2023-03-13T02:16:22.619Z,9.745000
2023-03-13T02:17:22.598Z,9.745053
2023-03-13T02:18:22.605Z,9.745367
2023-03-13T02:19:22.606Z,9.745459
2023-03-13T02:20:22.581Z,9.745370
2023-03-13T02:21:22.567Z,9.745489
2023-03-13T02:22:22.563Z,9.745628
2023-03-13T02:23:22.554Z,9.745293
2023-03-13T02:24:22.582Z,9.745441
2023-03-13T02:25:22.539Z,9.745451
2023-03-13T02:26:22.530Z,9.745410
2023-03-13T02:27:22.532Z,9.745481
2023-03-13T02:28:22.512Z,9.745646
2023-03-13T02:29:22.532Z,9.745186
2023-03-13T02:30:22.501Z,9.745260
2023-03-13T02:31:22.524Z,9.745401
2023-03-13T02:32:22.517Z,9.745516
2023-03-13T02:33:22.479Z,9.745592
2023-03-13T02:34:22.468Z,9.745464
2023-03-13T02:35:22.509Z,9.745459
2023-03-13T02:36:22.448Z,9.745530
2023-03-13T02:37:22.441Z,9.745584
2023-03-13T02:38:22.459Z,9.745564
2023-03-13T02:39:22.433Z,9.745090
2023-03-13T02:40:22.442Z,9.745152
2023-03-13T02:41:22.415Z,9.745531
2023-03-13T02:42:22.414Z,9.745256
2023-03-13T02:43:22.396Z,9.745412
2023-03-13T02:44:22.388Z,9.745373
2023-03-13T02:45:22.405Z,9.745404
2023-03-13T02:46:22.410Z,9.745316
2023-03-13T02:47:22.396Z,9.745347
2023-03-13T02:48:22.371Z,9.745307
2023-03-13T02:49:22.349Z,9.745514
2023-03-13T02:50:22.367Z,9.745520
2023-03-13T02:51:22.333Z,9.745051
2023-03-13T02:52:22.332Z,9.745564
2023-03-13T02:53:22.321Z,9.745556
2023-03-13T02:54:22.316Z,9.745432
2023-03-13T02:55:22.377Z,9.745478
2023-03-13T02:56:22.302Z,9.745499
2023-03-13T02:57:22.287Z,9.745478
2023-03-13T02:58:22.282Z,9.745610
2023-03-13T02:59:22.282Z,9.745795
2023-03-13T03:00:22.301Z,9.745451
2023-03-13T03:01:22.265Z,9.745504
2023-03-13T03:02:22.251Z,9.745481
2023-03-13T03:03:22.251Z,9.745451
2023-03-13T03:04:22.381Z,9.745414
2023-03-13T03:05:22.314Z,9.745317
2023-03-13T03:06:22.233Z,9.745575
2023-03-13T03:07:22.239Z,9.745510
2023-03-13T03:08:22.208Z,9.745274
2023-03-13T03:09:22.208Z,9.745178
2023-03-13T03:10:22.234Z,9.745362
2023-03-13T03:11:22.193Z,9.745296
2023-03-13T03:12:22.178Z,9.745511
2023-03-13T03:13:22.172Z,9.745234
2023-03-13T03:14:22.167Z,9.745355
2023-03-13T03:15:22.165Z,9.745416
2023-03-13T03:16:22.203Z,9.745371
2023-03-13T03:17:22.137Z,9.745316
2023-03-13T03:18:22.129Z,9.745820
2023-03-13T03:19:22.108Z,9.745649
2023-03-13T03:20:22.126Z,9.745457
2023-03-13T03:21:22.095Z,9.745304
2023-03-13T03:22:22.083Z,9.745438
2023-03-13T03:23:22.077Z,9.745480
2023-03-13T03:24:22.080Z,9.745897
2023-03-13T03:25:22.087Z,9.745698
2023-03-13T03:26:22.051Z,9.745779
2023-03-13T03:27:22.045Z,9.745498
2023-03-13T03:28:22.043Z,9.745312
2023-03-13T03:29:22.029Z,9.745625
2023-03-13T03:30:22.049Z,9.745704
2023-03-13T03:31:22.069Z,9.745767
2023-03-13T03:32:22.046Z,9.745418
2023-03-13T03:33:22.001Z,9.745493
2023-03-13T03:34:21.991Z,9.745432
2023-03-13T03:35:22.013Z,9.745546
2023-03-13T03:36:21.971Z,9.745527
2023-03-13T03:37:21.956Z,9.745519
2023-03-13T03:38:22.973Z,9.745565
2023-03-13T03:39:21.957Z,9.745475
2023-03-13T03:40:21.972Z,9.745525
2023-03-13T03:41:21.929Z,9.745570
2023-03-13T03:42:21.951Z,9.746212
2023-03-13T03:43:21.920Z,9.746070
2023-03-13T03:44:21.907Z,9.745565
2023-03-13T03:45:21.904Z,9.745432
2023-03-13T03:46:21.950Z,9.745314
2023-03-13T03:47:21.913Z,9.745663
2023-03-13T03:48:21.879Z,9.746019
2023-03-13T03:49:21.878Z,9.745486
2023-03-13T03:50:21.863Z,9.745130
2023-03-13T03:51:21.884Z,9.745281
2023-03-13T03:52:21.851Z,9.745478
2023-03-13T03:53:21.843Z,9.745730
2023-03-13T03:54:21.844Z,9.745340
2023-03-13T03:55:21.828Z,9.746366
2023-03-13T03:56:21.848Z,9.745938
2023-03-13T03:57:21.810Z,9.745886
2023-03-13T03:58:21.805Z,9.746168
2023-03-13T03:59:21.788Z,9.745646
2023-03-13T04:00:21.791Z,9.746014
2023-03-13T04:01:21.816Z,9.745991
2023-03-13T04:02:21.849Z,9.745639
2023-03-13T04:03:21.815Z,9.745371
2023-03-13T04:04:21.759Z,9.745208
2023-03-13T04:05:21.755Z,9.745494
2023-03-13T04:06:21.775Z,9.745737
2023-03-13T04:07:21.738Z,9.745754
2023-03-13T04:08:21.728Z,9.745893
2023-03-13T04:09:21.726Z,9.745801
2023-03-13T04:10:21.718Z,9.745627
2023-03-13T04:11:21.740Z,9.745638
2023-03-13T04:12:21.701Z,9.745636
2023-03-13T04:13:21.721Z,9.745612
2023-03-13T04:14:21.682Z,9.745564
2023-03-13T04:15:21.682Z,9.745523
2023-03-13T04:16:21.719Z,9.745472
2023-03-13T04:17:21.658Z,9.745441
2023-03-13T04:18:21.658Z,9.745532
2023-03-13T04:19:21.646Z,9.745462
2023-03-13T04:20:21.634Z,9.745405
2023-03-13T04:21:21.662Z,9.745723
2023-03-13T04:22:21.623Z,9.745480
2023-03-13T04:23:21.609Z,9.745437
2023-03-13T04:24:21.605Z,9.745439
2023-03-13T04:25:21.606Z,9.745485
2023-03-13T04:26:21.622Z,9.745536
2023-03-13T04:27:21.581Z,9.745480
2023-03-13T04:28:21.571Z,9.745500
2023-03-13T04:29:21.568Z,9.745455
2023-03-13T04:30:21.560Z,9.745379
2023-03-13T04:31:21.610Z,9.745387
2023-03-13T04:32:21.608Z,9.745482
2023-03-13T04:33:21.535Z,9.745583
2023-03-13T04:34:21.524Z,9.745576
2023-03-13T04:35:21.598Z,9.745624
2023-03-13T04:36:21.595Z,9.745512
2023-03-13T04:37:21.508Z,9.745466
2023-03-13T04:38:21.503Z,9.745500
2023-03-13T04:39:21.525Z,9.745433
2023-03-13T04:40:22.482Z,9.745650
2023-03-13T04:41:21.503Z,9.745532
2023-03-13T04:42:21.470Z,9.745570
2023-03-13T04:43:21.461Z,9.745525
2023-03-13T04:44:21.449Z,9.745461
2023-03-13T04:45:21.447Z,9.745550
2023-03-13T04:46:21.512Z,9.745429
2023-03-13T04:47:21.449Z,9.745605
2023-03-13T04:48:21.423Z,9.745348
2023-03-13T04:49:21.416Z,9.745504
2023-03-13T04:50:21.415Z,9.745237
2023-03-13T04:51:21.422Z,9.745493
2023-03-13T04:52:21.391Z,9.745635
2023-03-13T04:53:21.411Z,9.745520
2023-03-13T04:54:21.377Z,9.745212
2023-03-13T04:55:21.371Z,9.745142
2023-03-13T04:56:24.717Z,9.745539
2023-03-13T04:57:22.348Z,9.745342
2023-03-13T04:58:21.345Z,9.745682
2023-03-13T04:59:21.346Z,9.745543
2023-03-13T05:00:21.324Z,9.745684
2023-03-13T05:01:21.466Z,9.746024
2023-03-13T05:02:21.307Z,9.745626
2023-03-13T05:03:21.303Z,9.745581
2023-03-13T05:04:21.291Z,9.745733
2023-03-13T05:05:21.366Z,9.745435
2023-03-13T05:06:21.265Z,9.745728
2023-03-13T05:07:22.301Z,9.745902
2023-03-13T05:08:21.268Z,9.745624
2023-03-13T05:09:21.265Z,9.745541
2023-03-13T05:10:21.249Z,9.745532
2023-03-13T05:11:21.244Z,9.745737
2023-03-13T05:12:21.260Z,9.745683
2023-03-13T05:13:21.227Z,9.745437
2023-03-13T05:14:21.226Z,9.745558
2023-03-13T05:15:21.209Z,9.745544
2023-03-13T05:16:21.230Z,9.745599
2023-03-13T05:17:21.215Z,9.745575
2023-03-13T05:18:21.191Z,9.745513
2023-03-13T05:19:21.187Z,9.745605
2023-03-13T05:20:21.171Z,9.745230
2023-03-13T05:21:21.160Z,9.745399
2023-03-13T05:22:21.182Z,9.745366
2023-03-13T05:23:21.153Z,9.745669
2023-03-13T05:24:21.139Z,9.745343
2023-03-13T05:25:21.140Z,9.745426
2023-03-13T05:26:21.125Z,9.745475
2023-03-13T05:27:21.138Z,9.745543
2023-03-13T05:28:21.103Z,9.745608
2023-03-13T05:29:21.098Z,9.745701
2023-03-13T05:30:21.096Z,9.745436
2023-03-13T05:31:21.125Z,9.745563
2023-03-13T05:32:21.111Z,9.745523
2023-03-13T05:33:21.076Z,9.745452
2023-03-13T05:34:21.060Z,9.745523
2023-03-13T05:35:21.077Z,9.745739
2023-03-13T05:36:21.045Z,9.745501
2023-03-13T05:37:21.065Z,9.745379
2023-03-13T05:38:21.033Z,9.745424
2023-03-13T05:39:21.027Z,9.745566
2023-03-13T05:40:21.019Z,9.745740
2023-03-13T05:41:21.015Z,9.745717
2023-03-13T05:42:21.018Z,9.745507
2023-03-13T05:43:21.992Z,9.745641
2023-03-13T05:44:20.989Z,9.745664
2023-03-13T05:45:20.984Z,9.745620
2023-03-13T05:46:20.992Z,9.745705
2023-03-13T05:47:21.001Z,9.745542
2023-03-13T05:48:20.963Z,9.745428
2023-03-13T05:49:20.947Z,9.745643
2023-03-13T05:50:20.938Z,9.745468
2023-03-13T05:51:20.938Z,9.745615
2023-03-13T05:52:20.946Z,9.745569
2023-03-13T05:53:20.918Z,9.745506
2023-03-13T05:54:20.914Z,9.745577
2023-03-13T05:55:20.903Z,9.745577
2023-03-13T05:56:20.887Z,9.745546
2023-03-13T05:57:20.900Z,9.745448
2023-03-13T05:58:20.863Z,9.745402
2023-03-13T05:59:20.866Z,9.745739
2023-03-13T06:00:20.863Z,9.745740
2023-03-13T06:01:20.846Z,9.745412
2023-03-13T06:02:20.867Z,9.745913
2023-03-13T06:03:20.903Z,9.745338
2023-03-13T06:04:20.974Z,9.745132
2023-03-13T06:05:20.830Z,9.745470
2023-03-13T06:06:20.808Z,9.745452
2023-03-13T06:07:20.822Z,9.745032
2023-03-13T06:08:21.820Z,9.745175
2023-03-13T06:09:21.789Z,9.745362
2023-03-13T06:10:20.774Z,9.745082
2023-03-13T06:11:20.763Z,9.745409
2023-03-13T06:12:20.797Z,9.745426
2023-03-13T06:13:20.743Z,9.745469
2023-03-13T06:14:20.737Z,9.745546
2023-03-13T06:15:20.733Z,9.745327
2023-03-13T06:16:20.789Z,9.745362
2023-03-13T06:17:20.760Z,9.745338
2023-03-13T06:18:20.717Z,9.745566
2023-03-13T06:19:20.696Z,9.745630
2023-03-13T06:20:20.693Z,9.745508
2023-03-13T06:21:20.689Z,9.745290
2023-03-13T06:22:20.699Z,9.745426
2023-03-13T06:23:20.667Z,9.745384
2023-03-13T06:24:20.662Z,9.745510
2023-03-13T06:25:20.659Z,9.745436
2023-03-13T06:26:20.644Z,9.745228
2023-03-13T06:27:20.656Z,9.745296
2023-03-13T06:28:20.642Z,9.745442
2023-03-13T06:29:20.623Z,9.745561
2023-03-13T06:30:20.622Z,9.745138
2023-03-13T06:31:20.643Z,9.745287
2023-03-13T06:32:20.790Z,9.745400
2023-03-13T06:33:20.671Z,9.745447
2023-03-13T06:34:20.586Z,9.746188
2023-03-13T06:35:20.586Z,9.745408
2023-03-13T06:36:20.602Z,9.744940
2023-03-13T06:37:20.590Z,9.744298
2023-03-13T06:38:20.550Z,9.745115
2023-03-13T06:39:20.554Z,9.745932
2023-03-13T06:40:20.541Z,9.745503
2023-03-13T06:41:20.541Z,9.745300
2023-03-13T06:42:20.548Z,9.744986
2023-03-13T06:43:20.512Z,9.745173
2023-03-13T06:44:20.511Z,9.745810
2023-03-13T06:45:20.511Z,9.745476
2023-03-13T06:46:20.537Z,9.745709
2023-03-13T06:47:20.541Z,9.745900
2023-03-13T06:48:20.470Z,9.745803
2023-03-13T06:49:20.465Z,9.745327
2023-03-13T06:50:20.456Z,9.745541
2023-03-13T06:51:20.449Z,9.745790
2023-03-13T06:52:22.073Z,9.745477
2023-03-13T06:53:20.469Z,9.745109
2023-03-13T06:54:21.429Z,9.745350
2023-03-13T06:55:20.412Z,9.745602
2023-03-13T06:56:20.411Z,9.745606
2023-03-13T06:57:20.424Z,9.745399
2023-03-13T06:58:31.611Z,9.745630
2023-03-13T06:59:22.382Z,9.745463
2023-03-13T07:00:20.370Z,9.745460
2023-03-13T07:01:20.421Z,9.745740
2023-03-13T07:02:20.389Z,9.745488
2023-03-13T07:03:21.367Z,9.745862
2023-03-13T07:04:20.384Z,9.745627
2023-03-13T07:05:20.350Z,9.746258
2023-03-13T07:06:20.356Z,9.745744
2023-03-13T07:07:31.250Z,9.745808
2023-03-13T07:08:22.348Z,9.745774
2023-03-13T07:09:20.313Z,9.745759
2023-03-13T07:10:20.320Z,9.745948
2023-03-13T07:11:20.292Z,9.745802
2023-03-13T07:12:20.284Z,9.745951
2023-03-13T07:13:20.302Z,9.746366
2023-03-13T07:14:20.281Z,9.746272
2023-03-13T07:15:20.259Z,9.746351
2023-03-13T07:16:20.324Z,9.746060
2023-03-13T07:17:20.259Z,9.745732
2023-03-13T07:18:20.271Z,9.745752
2023-03-13T07:19:20.237Z,9.745637
2023-03-13T07:20:20.298Z,9.745627
2023-03-13T07:21:21.225Z,9.745420
2023-03-13T07:22:20.218Z,9.745411
2023-03-13T07:23:20.239Z,9.745794
2023-03-13T07:24:20.231Z,9.745973
2023-03-13T07:25:20.200Z,9.745563
2023-03-13T07:26:20.269Z,9.745666
2023-03-13T07:27:20.226Z,9.745341
2023-03-13T07:28:20.191Z,9.745453
2023-03-13T07:29:20.166Z,9.745604
2023-03-13T07:30:20.148Z,9.745570
2023-03-13T07:31:20.232Z,9.745610
2023-03-13T07:32:20.178Z,9.745770
2023-03-13T07:33:20.152Z,9.745721
2023-03-13T07:34:20.142Z,9.745680
2023-03-13T07:35:20.110Z,9.745384
2023-03-13T07:36:20.143Z,9.745585
2023-03-13T07:37:20.094Z,9.745660
2023-03-13T07:38:20.117Z,9.745527
2023-03-13T07:39:20.109Z,9.745447
2023-03-13T07:40:20.092Z,9.745635
2023-03-13T07:41:20.105Z,9.745481
2023-03-13T07:42:20.076Z,9.745329
2023-03-13T07:43:20.067Z,9.745518
2023-03-13T07:44:20.041Z,9.745623
2023-03-13T07:45:20.052Z,9.745730
2023-03-13T07:46:20.271Z,9.745610
2023-03-13T07:47:20.028Z,9.745405
2023-03-13T07:48:20.034Z,9.745462
2023-03-13T07:49:20.012Z,9.745361
2023-03-13T07:50:20.045Z,9.745574
2023-03-13T07:51:25.299Z,9.745475
2023-03-13T07:52:20.972Z,9.745445
2023-03-13T07:53:20.104Z,9.745412
2023-03-13T07:54:19.957Z,9.745544
2023-03-13T07:55:19.983Z,9.745533
2023-03-13T07:56:19.936Z,9.745470
2023-03-13T07:57:19.943Z,9.745611
2023-03-13T07:58:19.956Z,9.745557
2023-03-13T07:59:19.915Z,9.745565
2023-03-13T08:00:19.919Z,9.745465
2023-03-13T08:01:19.912Z,9.745544
2023-03-13T08:02:19.930Z,9.745466
2023-03-13T08:03:19.979Z,9.745501
2023-03-13T08:04:19.883Z,9.745509
2023-03-13T08:05:19.872Z,9.745463
2023-03-13T08:06:19.863Z,9.745497
2023-03-13T08:07:19.876Z,9.745501
2023-03-13T08:08:19.873Z,9.745563
2023-03-13T08:09:19.851Z,9.745506
2023-03-13T08:10:19.833Z,9.745533
2023-03-13T08:11:19.830Z,9.745597
2023-03-13T08:12:19.822Z,9.745704
2023-03-13T08:13:19.840Z,9.745542
2023-03-13T08:14:19.801Z,9.745699
2023-03-13T08:15:19.797Z,9.745571
2023-03-13T08:16:19.831Z,9.745987
2023-03-13T08:17:19.783Z,9.745656
2023-03-13T08:18:19.802Z,9.745562
2023-03-13T08:19:19.758Z,9.745733
2023-03-13T08:20:19.752Z,9.745636
2023-03-13T08:21:19.744Z,9.745650
2023-03-13T08:22:19.737Z,9.745489
2023-03-13T08:23:19.756Z,9.745806
2023-03-13T08:24:19.718Z,9.745625
2023-03-13T08:25:19.706Z,9.745607
2023-03-13T08:26:19.715Z,9.745617
2023-03-13T08:27:19.693Z,9.745564
2023-03-13T08:28:19.719Z,9.745384
2023-03-13T08:29:19.681Z,9.745604
2023-03-13T08:30:19.684Z,9.745689
2023-03-13T08:31:19.701Z,9.745523
2023-03-13T08:32:19.712Z,9.745391
2023-03-13T08:33:19.672Z,9.745363
2023-03-13T08:34:19.656Z,9.745482
2023-03-13T08:35:19.639Z,9.745447
2023-03-13T08:36:19.636Z,9.745469
2023-03-13T08:37:19.616Z,9.745399
2023-03-13T08:38:19.636Z,9.745518
2023-03-13T08:39:19.607Z,9.745297
2023-03-13T08:40:19.588Z,9.745216
2023-03-13T08:41:19.611Z,9.745317
2023-03-13T08:42:19.604Z,9.745395
2023-03-13T08:43:19.609Z,9.745036
2023-03-13T08:44:19.599Z,9.745210
2023-03-13T08:45:19.582Z,9.745399
2023-03-13T08:46:19.895Z,9.745407
2023-03-13T08:47:20.561Z,9.745439
2023-03-13T08:48:19.564Z,9.745894
2023-03-13T08:49:19.525Z,9.745460
2023-03-13T08:50:19.519Z,9.745635
2023-03-13T08:51:19.514Z,9.745612
2023-03-13T08:52:19.526Z,9.745525
2023-03-13T08:53:19.523Z,9.745365
2023-03-13T08:54:19.498Z,9.745335
2023-03-13T08:55:19.479Z,9.745583
2023-03-13T08:56:19.473Z,9.745376
2023-03-13T08:57:19.477Z,9.745445
2023-03-13T08:58:19.486Z,9.745702
2023-03-13T08:59:19.458Z,9.745498
2023-03-13T09:00:19.446Z,9.745177
2023-03-13T09:01:19.476Z,9.745260
2023-03-13T09:02:19.446Z,9.745785
2023-03-13T09:03:19.490Z,9.745684
2023-03-13T09:04:19.420Z,9.745476
2023-03-13T09:05:19.409Z,9.745583
2023-03-13T09:06:19.416Z,9.745474
2023-03-13T09:07:19.403Z,9.745549
2023-03-13T09:08:19.412Z,9.745611
2023-03-13T09:09:19.372Z,9.745728
2023-03-13T09:10:19.361Z,9.745760
2023-03-13T09:11:19.367Z,9.745507
2023-03-13T09:12:30.352Z,9.745394
2023-03-13T09:13:21.381Z,9.745383
2023-03-13T09:14:19.343Z,9.745064
2023-03-13T09:15:19.323Z,9.744946
2023-03-13T09:16:19.374Z,9.745410
2023-03-13T09:17:19.316Z,9.745688
2023-03-13T09:18:19.361Z,9.745368
2023-03-13T09:19:19.292Z,9.745555
2023-03-13T09:20:19.287Z,9.745713
2023-03-13T09:21:19.290Z,9.745594
2023-03-13T09:22:19.268Z,9.745408
2023-03-13T09:23:19.287Z,9.745094
2023-03-13T09:24:19.251Z,9.745345
2023-03-13T09:25:19.246Z,9.745250
2023-03-13T09:26:20.982Z,9.745577
2023-03-13T09:27:19.231Z,9.745398
2023-03-13T09:28:19.258Z,9.745501
2023-03-13T09:29:19.214Z,9.745365
2023-03-13T09:30:19.214Z,9.745543
2023-03-13T09:31:19.286Z,9.745558
2023-03-13T09:32:19.227Z,9.745553
2023-03-13T09:33:19.229Z,9.745377
2023-03-13T09:34:19.176Z,9.745631
2023-03-13T09:35:19.174Z,9.745460
2023-03-13T09:36:21.785Z,9.745457
2023-03-13T09:37:20.166Z,9.745553
2023-03-13T09:38:19.190Z,9.745510
2023-03-13T09:39:19.131Z,9.745432
2023-03-13T09:40:19.137Z,9.745525
2023-03-13T09:41:19.123Z,9.745578
2023-03-13T09:42:19.116Z,9.745596
2023-03-13T09:43:19.164Z,9.745634
2023-03-13T09:44:19.096Z,9.745606
2023-03-13T09:45:19.117Z,9.745546
2023-03-13T09:46:19.118Z,9.745443
2023-03-13T09:47:19.091Z,9.745477
2023-03-13T09:48:19.105Z,9.745627
2023-03-13T09:49:19.065Z,9.745515
2023-03-13T09:50:19.082Z,9.745407
2023-03-13T09:51:19.037Z,9.745367
2023-03-13T09:52:19.045Z,9.745424
2023-03-13T09:53:19.020Z,9.745516
2023-03-13T09:54:19.038Z,9.745448
2023-03-13T09:55:19.009Z,9.745496
2023-03-13T09:56:19.007Z,9.745531
2023-03-13T09:57:19.008Z,9.745390
2023-03-13T09:58:18.998Z,9.745286
2023-03-13T09:59:19.014Z,9.745503
2023-03-13T10:00:19.002Z,9.745501
2023-03-13T10:01:18.994Z,9.745413
2023-03-13T10:02:18.964Z,9.745419
2023-03-13T10:03:18.952Z,9.745401
2023-03-13T10:04:18.999Z,9.745542
2023-03-13T10:05:18.925Z,9.745595
2023-03-13T10:06:18.917Z,9.745297
2023-03-13T10:07:18.923Z,9.745306
2023-03-13T10:08:18.902Z,9.745318
2023-03-13T10:09:18.928Z,9.745390
2023-03-13T10:10:18.893Z,9.745355
2023-03-13T10:11:18.888Z,9.745371
2023-03-13T10:12:18.894Z,9.745166
2023-03-13T10:13:18.874Z,9.745219
2023-03-13T10:14:18.898Z,9.745495
2023-03-13T10:15:18.853Z,9.745506
2023-03-13T10:16:19.518Z,9.745337
2023-03-13T10:17:19.846Z,9.745337
2023-03-13T10:18:18.847Z,9.745349
2023-03-13T10:19:18.857Z,9.745386
2023-03-13T10:20:18.847Z,9.745488
2023-03-13T10:21:18.796Z,9.745317
2023-03-13T10:22:19.804Z,9.745243
2023-03-13T10:23:18.788Z,9.745370
2023-03-13T10:24:18.801Z,9.745382
2023-03-13T10:25:18.767Z,9.745621
2023-03-13T10:26:18.767Z,9.745441
2023-03-13T10:27:18.801Z,9.745601
2023-03-13T10:28:18.758Z,9.745379
2023-03-13T10:29:18.774Z,9.745328
2023-03-13T10:30:18.753Z,9.745498
2023-03-13T10:31:18.839Z,9.745442
2023-03-13T10:32:18.756Z,9.745515
2023-03-13T10:33:18.706Z,9.745443
2023-03-13T10:34:18.741Z,9.745259
2023-03-13T10:35:18.699Z,9.745326
2023-03-13T10:36:18.700Z,9.745301
2023-03-13T10:37:18.679Z,9.745328
2023-03-13T10:38:18.670Z,9.745457
2023-03-13T10:39:18.698Z,9.745479
2023-03-13T10:40:18.655Z,9.745388
2023-03-13T10:41:18.655Z,9.745541
2023-03-13T10:42:18.638Z,9.745495
2023-03-13T10:43:20.149Z,9.745526
2023-03-13T10:44:18.650Z,9.745398
2023-03-13T10:45:18.616Z,9.745409
2023-03-13T10:46:18.633Z,9.745463
2023-03-13T10:47:18.597Z,9.745641
2023-03-13T10:48:18.596Z,9.745735
2023-03-13T10:49:18.632Z,9.745595
2023-03-13T10:50:18.627Z,9.745565
2023-03-13T10:51:18.574Z,9.745418
2023-03-13T10:52:18.566Z,9.745586
2023-03-13T10:53:18.577Z,9.745560
2023-03-13T10:54:18.567Z,9.745480
2023-03-13T10:55:18.542Z,9.745558
2023-03-13T10:56:18.531Z,9.745533
2023-03-13T10:57:18.517Z,9.745447
2023-03-13T10:58:18.518Z,9.745408
2023-03-13T10:59:18.539Z,9.745567
2023-03-13T11:00:18.532Z,9.745583
2023-03-13T11:01:18.504Z,9.745550
2023-03-13T11:02:18.534Z,9.745509
2023-03-13T11:03:19.593Z,9.745581
2023-03-13T11:04:18.512Z,9.745726
2023-03-13T11:05:18.462Z,9.745668
2023-03-13T11:06:18.462Z,9.745688
2023-03-13T11:07:18.447Z,9.745620
2023-03-13T11:08:18.495Z,9.745438
2023-03-13T11:09:18.458Z,9.745635
2023-03-13T11:10:18.491Z,9.745756
2023-03-13T11:11:18.424Z,9.745818
2023-03-13T11:12:18.413Z,9.745468
2023-03-13T11:13:30.660Z,9.745296
2023-03-13T11:14:20.421Z,9.745482
2023-03-13T11:15:18.412Z,9.745645
2023-03-13T11:16:18.427Z,9.745448
2023-03-13T11:17:18.359Z,9.745489
2023-03-13T11:18:19.357Z,9.745628
2023-03-13T11:19:18.376Z,9.745852
2023-03-13T11:20:18.505Z,9.745434
2023-03-13T11:21:18.713Z,9.745439
2023-03-13T11:22:19.374Z,9.745524
2023-03-13T11:23:18.326Z,9.745588
2023-03-13T11:24:18.335Z,9.745353
2023-03-13T11:25:18.304Z,9.745603
2023-03-13T11:26:18.299Z,9.745609
2023-03-13T11:27:18.319Z,9.745654
2023-03-13T11:28:18.289Z,9.745644
2023-03-13T11:29:18.317Z,9.745459
2023-03-13T11:30:18.320Z,9.745297
2023-03-13T11:31:18.330Z,9.745539
2023-03-13T11:32:18.276Z,9.745662
2023-03-13T11:33:18.239Z,9.745520
2023-03-13T11:34:18.273Z,9.745556
2023-03-13T11:35:18.220Z,9.745571
2023-03-13T11:36:18.212Z,9.745597
2023-03-13T11:37:19.198Z,9.745584
2023-03-13T11:38:18.195Z,9.745603
2023-03-13T11:39:18.212Z,9.745439
2023-03-13T11:40:18.209Z,9.745340
2023-03-13T11:41:18.205Z,9.745380
2023-03-13T11:42:18.177Z,9.745411
2023-03-13T11:43:25.320Z,9.745246
2023-03-13T11:44:20.208Z,9.744924